createdAt,value
2017-03-19T08:24:03.079Z,6.6
2017-03-19T08:25:03.380Z,6.57
2017-03-19T08:26:03.042Z,6.57
2017-03-19T08:27:03.031Z,6.72
2017-03-19T08:28:02.707Z,6.82
2017-03-19T08:29:03.000Z,6.82
2017-03-19T08:30:03.314Z,6.97
2017-03-19T08:31:03.291Z,7.09
2017-03-19T08:32:03.276Z,7.16
2017-03-19T08:33:03.261Z,7.27
2017-03-19T08:34:03.247Z,7.29
2017-03-19T08:35:02.923Z,7.48
2017-03-19T08:36:02.906Z,7.47
2017-03-19T08:37:02.896Z,7.56
2017-03-19T08:38:02.879Z,7.78
2017-03-19T08:39:03.183Z,7.8
2017-03-19T08:40:03.176Z,7.86
2017-03-19T08:41:02.844Z,7.88
2017-03-19T08:42:02.837Z,7.82
2017-03-19T08:43:03.136Z,7.78
2017-03-19T08:44:03.122Z,7.78
2017-03-19T08:45:03.113Z,7.73
2017-03-19T08:46:03.098Z,7.61
2017-03-19T08:47:02.775Z,7.58
2017-03-19T08:48:02.763Z,7.61
2017-03-19T08:49:03.063Z,7.61
2017-03-19T08:50:02.744Z,7.59
2017-03-19T08:51:03.081Z,7.59
2017-03-19T08:52:03.038Z,7.74
2017-03-19T08:53:03.022Z,7.78
2017-03-19T08:54:02.698Z,7.74
2017-03-19T08:55:03.037Z,7.82
2017-03-19T08:56:02.990Z,7.88
2017-03-19T08:57:02.978Z,7.8
2017-03-19T08:58:02.970Z,7.77
2017-03-19T08:59:02.956Z,7.85
2017-03-19T09:00:02.946Z,7.78
2017-03-19T09:01:02.934Z,7.73
2017-03-19T09:02:02.922Z,7.74
2017-03-19T09:03:02.917Z,7.77
2017-03-19T09:04:02.906Z,7.67
2017-03-19T09:05:02.580Z,7.68
2017-03-19T09:06:02.883Z,7.61
2017-03-19T09:07:02.871Z,7.61
2017-03-19T09:08:02.549Z,7.7
2017-03-19T09:09:02.860Z,7.61
2017-03-19T09:10:02.530Z,7.61
2017-03-19T09:11:02.831Z,7.61
2017-03-19T09:12:02.819Z,7.56
2017-03-19T09:13:02.492Z,7.67
2017-03-19T09:14:02.489Z,7.56
2017-03-19T09:15:02.786Z,7.63
2017-03-19T09:16:02.463Z,7.74
2017-03-19T09:17:02.768Z,7.86
2017-03-19T09:18:02.788Z,7.82
2017-03-19T09:19:02.753Z,7.77
2017-03-19T09:20:02.737Z,7.77
2017-03-19T09:21:02.726Z,7.83
2017-03-19T09:22:02.408Z,7.78
2017-03-19T09:23:02.393Z,7.75
2017-03-19T09:24:02.701Z,7.78
2017-03-19T09:25:02.688Z,7.74
2017-03-19T09:26:02.676Z,7.74
2017-03-19T09:27:02.664Z,7.82
2017-03-19T09:28:02.667Z,7.82
2017-03-19T09:29:02.645Z,7.83
2017-03-19T09:30:02.636Z,7.83
2017-03-19T09:31:02.622Z,7.82
2017-03-19T09:32:02.618Z,7.82
2017-03-19T09:33:02.606Z,7.8
2017-03-19T09:34:02.594Z,7.74
2017-03-19T09:35:02.588Z,7.82
2017-03-19T09:36:02.577Z,7.86
2017-03-19T09:37:02.566Z,7.8
2017-03-19T09:38:02.556Z,7.73
2017-03-19T09:39:02.227Z,7.61
2017-03-19T09:40:02.540Z,7.59
2017-03-19T09:41:02.520Z,7.58
2017-03-19T09:42:02.517Z,7.61
2017-03-19T09:43:02.506Z,7.49
2017-03-19T09:44:02.493Z,7.61
2017-03-19T09:45:02.486Z,7.45
2017-03-19T09:46:02.476Z,7.44
2017-03-19T09:47:02.144Z,7.41
2017-03-19T09:48:02.448Z,7.44
2017-03-19T09:49:02.448Z,7.45
2017-03-19T09:50:02.430Z,7.48
2017-03-19T09:51:02.102Z,7.54
2017-03-19T09:52:02.413Z,7.59
2017-03-19T09:53:02.398Z,7.78
2017-03-19T09:54:02.388Z,7.85
2017-03-19T09:55:02.380Z,8.03
2017-03-19T09:56:02.370Z,8.06
2017-03-19T09:57:02.369Z,8.16
2017-03-19T09:58:02.348Z,8.22
2017-03-19T09:59:02.345Z,8.14
2017-03-19T10:00:02.334Z,8.25
2017-03-19T10:01:02.316Z,8.36
2017-03-19T10:02:02.307Z,8.42
2017-03-19T10:03:02.301Z,8.43
2017-03-19T10:04:02.296Z,8.47
2017-03-19T10:05:02.282Z,8.52
2017-03-19T10:06:02.269Z,8.42
2017-03-19T10:07:02.296Z,8.4
2017-03-19T10:08:02.256Z,8.44
2017-03-19T10:09:02.243Z,8.46
2017-03-19T10:10:02.230Z,8.4
2017-03-19T10:11:02.222Z,8.36
2017-03-19T10:12:02.217Z,8.29
2017-03-19T10:13:02.208Z,8.29
2017-03-19T10:14:02.197Z,8.25
2017-03-19T10:15:02.182Z,8.36
2017-03-19T10:16:02.208Z,8.4
2017-03-19T10:17:02.164Z,8.32
2017-03-19T10:18:02.151Z,8.26
2017-03-19T10:19:02.141Z,8.21
2017-03-19T10:20:02.139Z,8.24
2017-03-19T10:21:01.852Z,8.25
2017-03-19T10:22:01.797Z,8.21
2017-03-19T10:23:02.106Z,8.22
2017-03-19T10:24:02.134Z,8.21
2017-03-19T10:25:02.087Z,8.22
2017-03-19T10:26:01.760Z,8.22
2017-03-19T10:27:02.067Z,8.28
2017-03-19T10:28:02.057Z,8.19
2017-03-19T10:29:02.040Z,8.21
2017-03-19T10:30:01.761Z,8.21
2017-03-19T10:31:02.023Z,8.14
2017-03-19T10:32:01.700Z,8.24
2017-03-19T10:33:02.042Z,8.22
2017-03-19T10:34:02.002Z,8.31
2017-03-19T10:35:01.991Z,8.22
2017-03-19T10:36:01.978Z,8.19
2017-03-19T10:37:01.972Z,8.29
2017-03-19T10:38:01.965Z,8.28
2017-03-19T10:39:01.950Z,8.24
2017-03-19T10:40:01.939Z,8.22
2017-03-19T10:41:01.930Z,8.32
2017-03-19T10:42:01.920Z,8.19
2017-03-19T10:43:01.949Z,8.24
2017-03-19T10:44:01.587Z,8.24
2017-03-19T10:45:01.892Z,8.29
2017-03-19T10:46:01.883Z,8.4
2017-03-19T10:47:01.871Z,8.42
2017-03-19T10:48:01.869Z,8.32
2017-03-19T10:49:01.856Z,8.28
2017-03-19T10:50:01.852Z,8.4
2017-03-19T10:51:01.836Z,8.47
2017-03-19T10:52:01.818Z,8.46
2017-03-19T10:53:01.815Z,8.49
2017-03-19T10:54:01.494Z,8.57
2017-03-19T10:55:01.794Z,8.62
2017-03-19T10:56:01.787Z,8.65
2017-03-19T10:57:01.780Z,8.69
2017-03-19T10:58:01.134Z,8.72
2017-03-19T10:59:01.770Z,8.77
2017-03-19T11:00:01.749Z,8.87
2017-03-19T11:01:01.732Z,8.79
2017-03-19T11:02:01.730Z,8.94
2017-03-19T11:03:01.723Z,8.89
2017-03-19T11:04:01.709Z,9
2017-03-19T11:05:01.707Z,8.9
2017-03-19T11:06:01.690Z,9.04
2017-03-19T11:07:01.714Z,9.04
2017-03-19T11:08:01.672Z,9.04
2017-03-19T11:09:01.663Z,8.97
2017-03-19T11:10:01.341Z,8.97
2017-03-19T11:11:01.645Z,8.94
2017-03-19T11:12:01.633Z,9.04
2017-03-19T11:13:01.628Z,9.08
2017-03-19T11:14:01.626Z,9.04
2017-03-19T11:15:01.666Z,9.01
2017-03-19T11:16:01.598Z,9.16
2017-03-19T11:17:01.589Z,9.24
2017-03-19T11:18:01.585Z,9.27
2017-03-19T11:19:01.579Z,9.32
2017-03-19T11:20:01.567Z,9.44
2017-03-19T11:21:01.557Z,9.47
2017-03-19T11:22:01.547Z,9.5
2017-03-19T11:23:01.542Z,9.44
2017-03-19T11:24:00.895Z,9.5
2017-03-19T11:25:01.524Z,9.45
2017-03-19T11:26:01.510Z,9.52
2017-03-19T11:27:01.506Z,9.5
2017-03-19T11:28:01.498Z,9.52
2017-03-19T11:29:01.489Z,9.48
2017-03-19T11:30:01.166Z,9.52
2017-03-19T11:31:01.470Z,9.57
2017-03-19T11:32:01.467Z,9.63
2017-03-19T11:33:01.137Z,9.77
2017-03-19T11:34:01.448Z,9.89
2017-03-19T11:35:01.448Z,9.99
2017-03-19T11:36:01.426Z,10
2017-03-19T11:37:01.421Z,10.05
2017-03-19T11:38:01.415Z,10.03
2017-03-19T11:39:01.407Z,10.14
2017-03-19T11:40:01.399Z,10.25
2017-03-19T11:41:01.381Z,10.21
2017-03-19T11:42:01.379Z,10.21
2017-03-19T11:43:01.373Z,10.35
2017-03-19T11:44:01.364Z,10.35
2017-03-19T11:45:01.358Z,10.35
2017-03-19T11:46:01.344Z,10.38
2017-03-19T11:47:01.368Z,10.38
2017-03-19T11:48:01.371Z,10.36
2017-03-19T11:49:01.362Z,10.36
2017-03-19T11:50:01.318Z,10.41
2017-03-19T11:51:01.331Z,10.49
2017-03-19T11:52:00.984Z,10.44
2017-03-19T11:53:01.292Z,10.49
2017-03-19T11:54:01.282Z,10.59
2017-03-19T11:55:01.278Z,10.54
2017-03-19T11:56:01.271Z,10.49
2017-03-19T11:57:01.265Z,10.49
2017-03-19T11:58:00.938Z,10.51
2017-03-19T11:59:01.248Z,10.52
2017-03-19T12:00:00.920Z,10.59
2017-03-19T12:01:01.232Z,10.72
2017-03-19T12:02:01.221Z,10.67
2017-03-19T12:03:01.211Z,10.66
2017-03-19T12:04:01.208Z,10.69
2017-03-19T12:05:01.201Z,10.67
2017-03-19T12:06:01.190Z,10.8
2017-03-19T12:07:01.184Z,10.77
2017-03-19T12:08:01.184Z,10.9
2017-03-19T12:09:01.172Z,10.9
2017-03-19T12:10:01.163Z,10.77
2017-03-19T12:11:01.153Z,10.77
2017-03-19T12:12:01.147Z,10.83
2017-03-19T12:13:00.827Z,10.72
2017-03-19T12:14:00.823Z,10.69
2017-03-19T12:15:01.132Z,10.7
2017-03-19T12:16:01.119Z,10.66
2017-03-19T12:17:01.111Z,10.67
2017-03-19T12:18:01.109Z,10.66
2017-03-19T12:19:01.102Z,10.67
2017-03-19T12:20:01.093Z,10.7
2017-03-19T12:21:01.085Z,10.67
2017-03-19T12:22:01.075Z,10.7
2017-03-19T12:23:01.070Z,10.67
2017-03-19T12:24:01.065Z,10.69
2017-03-19T12:25:01.059Z,10.7
2017-03-19T12:26:00.727Z,10.61
2017-03-19T12:27:01.042Z,10.69
2017-03-19T12:28:01.032Z,10.59
2017-03-19T12:29:01.029Z,10.66
2017-03-19T12:30:01.015Z,10.63
2017-03-19T12:31:01.016Z,10.54
2017-03-19T12:32:01.047Z,10.52
2017-03-19T12:33:00.997Z,10.55
2017-03-19T12:34:00.996Z,10.54
2017-03-19T12:35:00.979Z,10.47
2017-03-19T12:36:00.660Z,10.42
2017-03-19T12:37:00.704Z,10.42
2017-03-19T12:38:00.960Z,10.39
2017-03-19T12:39:00.952Z,10.41
2017-03-19T12:40:00.943Z,10.38
2017-03-19T12:41:00.620Z,10.36
2017-03-19T12:42:00.927Z,10.31
2017-03-19T12:43:00.922Z,10.39
2017-03-19T12:44:00.920Z,10.38
2017-03-19T12:45:00.910Z,10.42
2017-03-19T12:46:00.899Z,10.36
2017-03-19T12:47:00.890Z,10.44
2017-03-19T12:48:00.887Z,10.52
2017-03-19T12:49:00.881Z,10.55
2017-03-19T12:50:00.866Z,10.59
2017-03-19T12:51:00.868Z,10.7
2017-03-19T12:52:00.855Z,10.66
2017-03-19T12:53:00.534Z,10.69
2017-03-19T12:54:00.522Z,10.77
2017-03-19T12:55:00.831Z,10.84
2017-03-19T12:56:00.509Z,10.94
2017-03-19T12:57:00.811Z,10.91
2017-03-19T12:58:00.809Z,10.9
2017-03-19T12:59:00.486Z,10.97
2017-03-19T13:00:00.795Z,10.88
2017-03-19T13:01:00.788Z,10.9
2017-03-19T13:02:00.462Z,11
2017-03-19T13:03:00.776Z,10.91
2017-03-19T13:04:00.769Z,10.9
2017-03-19T13:05:00.760Z,10.88
2017-03-19T13:06:00.750Z,10.88
2017-03-19T13:07:00.742Z,10.94
2017-03-19T13:08:00.737Z,11.02
2017-03-19T13:09:00.730Z,10.94
2017-03-19T13:10:00.765Z,10.98
2017-03-19T13:11:00.713Z,11.05
2017-03-19T13:12:00.394Z,11.06
2017-03-19T13:13:00.391Z,11
2017-03-19T13:14:00.695Z,10.97
2017-03-19T13:15:00.688Z,10.91
2017-03-19T13:16:00.678Z,10.95
2017-03-19T13:17:00.673Z,10.97
2017-03-19T13:18:00.668Z,10.9
2017-03-19T13:19:00.346Z,10.91
2017-03-19T13:20:00.647Z,10.85
2017-03-19T13:21:00.328Z,10.9
2017-03-19T13:22:00.637Z,10.88
2017-03-19T13:23:00.313Z,10.79
2017-03-19T13:24:00.622Z,10.85
2017-03-19T13:25:00.619Z,10.85
2017-03-19T13:26:00.292Z,10.75
2017-03-19T13:27:00.285Z,10.75
2017-03-19T13:28:00.598Z,10.8
2017-03-19T13:29:00.585Z,10.73
2017-03-19T13:30:00.265Z,10.75
2017-03-19T13:31:00.569Z,10.69
2017-03-19T13:32:00.249Z,10.73
2017-03-19T13:33:00.561Z,10.69
2017-03-19T13:34:00.238Z,10.66
2017-03-19T13:35:00.234Z,10.69
2017-03-19T13:36:00.534Z,10.7
2017-03-19T13:37:00.213Z,10.67
2017-03-19T13:38:00.211Z,10.69
2017-03-19T13:38:59.887Z,10.67
2017-03-19T13:40:00.192Z,10.75
2017-03-19T13:41:00.179Z,10.8
2017-03-19T13:42:00.523Z,10.91
2017-03-19T13:43:00.481Z,10.92
2017-03-19T13:44:00.482Z,10.95
2017-03-19T13:45:00.473Z,10.88
2017-03-19T13:46:00.464Z,10.94
2017-03-19T13:47:00.455Z,10.87
2017-03-19T13:48:00.461Z,10.91
2017-03-19T13:49:00.444Z,10.84
2017-03-19T13:50:00.433Z,10.91
2017-03-19T13:51:00.419Z,10.87
2017-03-19T13:52:00.419Z,10.88
2017-03-19T13:53:00.101Z,10.9
2017-03-19T13:54:00.408Z,10.85
2017-03-19T13:55:00.399Z,10.91
2017-03-19T13:56:00.386Z,10.88
2017-03-19T13:57:00.380Z,10.85
2017-03-19T13:58:00.378Z,10.87
2017-03-19T13:59:00.370Z,10.92
2017-03-19T14:00:00.049Z,10.84
2017-03-19T14:01:00.039Z,10.91
2017-03-19T14:02:00.348Z,10.94
2017-03-19T14:03:00.341Z,10.98
2017-03-19T14:04:00.332Z,11.05
2017-03-19T14:05:00.334Z,10.95
2017-03-19T14:06:00.011Z,11.1
2017-03-19T14:07:00.307Z,11.05
2017-03-19T14:07:59.987Z,11.06
2017-03-19T14:08:59.982Z,11.12
2017-03-19T14:09:59.977Z,11.12
2017-03-19T14:10:59.963Z,11.12
2017-03-19T14:11:59.961Z,11.13
2017-03-19T14:12:59.958Z,11.13
2017-03-19T14:14:00.263Z,11.16
2017-03-19T14:15:00.258Z,11.16
2017-03-19T14:16:00.370Z,11.13
2017-03-19T14:17:00.256Z,11.09
2017-03-19T14:18:00.240Z,11.06
2017-03-19T14:18:59.913Z,11.06
2017-03-19T14:20:00.219Z,11
2017-03-19T14:21:00.208Z,10.88
2017-03-19T14:22:00.208Z,10.9
2017-03-19T14:22:59.903Z,10.92
2017-03-19T14:24:00.193Z,10.87
2017-03-19T14:25:00.187Z,10.75
2017-03-19T14:26:00.182Z,10.65
2017-03-19T14:27:00.170Z,10.69
2017-03-19T14:27:59.887Z,10.59
2017-03-19T14:28:59.852Z,10.51
2017-03-19T14:30:00.581Z,10.52
2017-03-19T14:31:00.139Z,10.49
2017-03-19T14:31:59.820Z,10.36
2017-03-19T14:32:59.814Z,10.36
2017-03-19T14:33:59.491Z,10.29
2017-03-19T14:35:00.115Z,10.28
2017-03-19T14:36:00.099Z,10.23
2017-03-19T14:36:59.783Z,10.23
2017-03-19T14:38:00.092Z,10.25
2017-03-19T14:39:00.096Z,10.26
2017-03-19T14:39:59.757Z,10.21
2017-03-19T14:41:00.065Z,10.17
2017-03-19T14:42:00.062Z,10.18
2017-03-19T14:43:00.057Z,10.14
2017-03-19T14:44:00.046Z,10.14
2017-03-19T14:45:00.036Z,10.17
2017-03-19T14:45:59.714Z,10.13
2017-03-19T14:47:00.021Z,10.2
2017-03-19T14:48:00.012Z,10.14
2017-03-19T14:49:00.008Z,10.28
2017-03-19T14:49:59.998Z,10.26
2017-03-19T14:50:59.990Z,10.23
2017-03-19T14:51:59.984Z,10.25
2017-03-19T14:52:59.979Z,10.29
2017-03-19T14:53:59.968Z,10.26
2017-03-19T14:54:59.958Z,10.2
2017-03-19T14:55:59.955Z,10.25
2017-03-19T14:56:59.634Z,10.28
2017-03-19T14:57:59.939Z,10.25
2017-03-19T14:58:59.931Z,10.26
2017-03-19T14:59:59.643Z,10.25
2017-03-19T15:00:59.910Z,10.23
2017-03-19T15:01:59.906Z,10.25
2017-03-19T15:02:59.900Z,10.21
2017-03-19T15:03:59.890Z,10.21
2017-03-19T15:04:59.893Z,10.21
2017-03-19T15:05:59.870Z,10.21
2017-03-19T15:06:59.737Z,10.28
2017-03-19T15:07:59.973Z,10.21
2017-03-19T15:08:59.846Z,10.2
2017-03-19T15:09:59.847Z,10.29
2017-03-19T15:11:00.067Z,10.26
2017-03-19T15:12:00.081Z,10.13
2017-03-19T15:12:59.666Z,10.14
2017-03-19T15:14:00.002Z,10.18
2017-03-19T15:14:59.855Z,10.32
2017-03-19T15:15:59.793Z,10.21
2017-03-19T15:16:59.786Z,10.21
2017-03-19T15:17:59.548Z,10.21
2017-03-19T15:18:59.856Z,10.23
2017-03-19T15:19:59.761Z,10.25
2017-03-19T15:20:59.752Z,10.31
2017-03-19T15:21:59.766Z,10.32
2017-03-19T15:22:59.734Z,10.21
2017-03-19T15:24:00.021Z,10.21
2017-03-19T15:24:59.891Z,10.25
2017-03-19T15:25:59.405Z,10.26
2017-03-19T15:26:59.701Z,10.23
2017-03-19T15:27:59.381Z,10.29
2017-03-19T15:28:59.481Z,10.2
2017-03-19T15:29:59.379Z,10.26
2017-03-19T15:30:59.911Z,10.21
2017-03-19T15:31:59.109Z,10.15
2017-03-19T15:32:59.405Z,10.2
2017-03-19T15:33:59.669Z,10.25
2017-03-19T15:35:00.058Z,10.18
2017-03-19T15:35:59.605Z,10.29
2017-03-19T15:36:59.870Z,10.28
2017-03-19T15:37:59.847Z,10.21
2017-03-19T15:38:59.780Z,10.17
2017-03-19T15:39:59.677Z,10.14
2017-03-19T15:40:59.314Z,10.23
2017-03-19T15:41:59.269Z,10.18
2017-03-19T15:42:59.295Z,10.15
2017-03-19T15:43:59.569Z,10.15
2017-03-19T15:44:59.251Z,10.13
2017-03-19T15:45:59.235Z,10.2
2017-03-19T15:46:59.436Z,10.14
2017-03-19T15:47:59.545Z,10.15
2017-03-19T15:48:59.212Z,10.15
2017-03-19T15:49:59.614Z,10.15
2017-03-19T15:50:59.693Z,10.1
2017-03-19T15:51:59.772Z,10.13
2017-03-19T15:52:59.687Z,10.03
2017-03-19T15:53:59.560Z,10.14
2017-03-19T15:54:59.166Z,10.03
2017-03-19T15:55:59.154Z,10.05
2017-03-19T15:56:59.142Z,10.03
2017-03-19T15:57:58.824Z,10.05
2017-03-19T15:58:59.407Z,10.05
2017-03-19T15:59:59.437Z,10.08
2017-03-19T16:00:59.430Z,10.11
2017-03-19T16:01:59.125Z,10.07
2017-03-19T16:02:59.795Z,10.08
2017-03-19T16:03:59.509Z,10.15
2017-03-19T16:04:59.766Z,10.05
2017-03-19T16:06:00.331Z,10.02
2017-03-19T16:06:59.213Z,10.03
2017-03-19T16:07:59.229Z,10.03
2017-03-19T16:08:59.091Z,10.07
2017-03-19T16:09:59.560Z,10.05
2017-03-19T16:10:59.389Z,10.05
2017-03-19T16:12:00.316Z,10.03
2017-03-19T16:12:59.697Z,10.08
2017-03-19T16:13:59.600Z,10.07
2017-03-19T16:14:59.377Z,10.1
2017-03-19T16:15:59.695Z,10.07
2017-03-19T16:16:59.832Z,10.1
2017-03-19T16:17:59.524Z,10.1
2017-03-19T16:18:59.757Z,9.96
2017-03-19T16:19:59.369Z,10.1
2017-03-19T16:20:59.529Z,9.99
2017-03-19T16:21:59.374Z,10.02
2017-03-19T16:23:00.190Z,10.03
2017-03-19T16:24:00.169Z,10.08
2017-03-19T16:24:59.462Z,10.08
2017-03-19T16:25:58.936Z,10.08
2017-03-19T16:26:59.612Z,9.99
2017-03-19T16:28:00.070Z,9.95
2017-03-19T16:28:59.595Z,10.07
2017-03-19T16:29:59.755Z,10.07
2017-03-19T16:30:59.780Z,10.13
2017-03-19T16:31:59.290Z,10.08
2017-03-19T16:33:00.070Z,9.96
2017-03-19T16:33:58.913Z,10.07
2017-03-19T16:34:58.968Z,10.07
2017-03-19T16:35:58.993Z,10.02
2017-03-19T16:36:59.545Z,10.08
2017-03-19T16:37:58.976Z,9.93
2017-03-19T16:38:59.469Z,10.03
2017-03-19T16:39:59.321Z,10.03
2017-03-19T16:40:58.947Z,10.02
2017-03-19T16:41:59.088Z,10
2017-03-19T16:42:59.018Z,9.99
2017-03-19T16:43:59.007Z,10.02
2017-03-19T16:44:59.419Z,10.02
2017-03-19T16:45:59.453Z,10.05
2017-03-19T16:46:59.507Z,10.02
2017-03-19T16:47:59.151Z,10
2017-03-19T16:48:59.447Z,10.03
2017-03-19T16:49:58.985Z,10.02
2017-03-19T16:50:58.966Z,9.93
2017-03-19T16:51:59.144Z,9.9
2017-03-19T16:52:59.158Z,9.96
2017-03-19T16:53:59.724Z,9.95
2017-03-19T16:54:59.150Z,9.96
2017-03-19T16:55:59.190Z,9.89
2017-03-19T16:56:59.040Z,9.93
2017-03-19T16:57:59.118Z,9.88
2017-03-19T16:58:59.380Z,9.88
2017-03-19T16:59:59.432Z,9.92
2017-03-19T17:00:59.339Z,9.92
2017-03-19T17:01:59.088Z,9.82
2017-03-19T17:02:59.317Z,9.82
2017-03-19T17:03:59.263Z,9.81
2017-03-19T17:04:59.065Z,9.9
2017-03-19T17:05:59.090Z,9.82
2017-03-19T17:06:59.014Z,9.81
2017-03-19T17:07:59.049Z,9.81
2017-03-19T17:08:59.316Z,9.78
2017-03-19T17:09:59.174Z,9.81
2017-03-19T17:10:59.266Z,9.78
2017-03-19T17:11:59.198Z,9.84
2017-03-19T17:12:58.845Z,9.78
2017-03-19T17:13:59.360Z,9.78
2017-03-19T17:14:59.171Z,9.8
2017-03-19T17:15:58.800Z,9.8
2017-03-19T17:16:58.868Z,9.8
2017-03-19T17:17:58.671Z,9.75
2017-03-19T17:18:59.178Z,9.78
2017-03-19T17:19:59.650Z,9.75
2017-03-19T17:20:59.120Z,9.75
2017-03-19T17:21:58.995Z,9.75
2017-03-19T17:22:58.329Z,9.78
2017-03-19T17:23:58.603Z,9.78
2017-03-19T17:24:59.546Z,9.74
2017-03-19T17:25:59.146Z,9.75
2017-03-19T17:26:59.199Z,9.77
2017-03-19T17:27:59.424Z,9.74
2017-03-19T17:28:59.226Z,9.72
2017-03-19T17:29:59.281Z,9.66
2017-03-19T17:30:58.758Z,9.78
2017-03-19T17:31:58.802Z,9.75
2017-03-19T17:32:58.817Z,9.77
2017-03-19T17:33:58.895Z,9.78
2017-03-19T17:34:58.990Z,9.74
2017-03-19T17:35:58.918Z,9.8
2017-03-19T17:36:58.784Z,9.8
2017-03-19T17:37:59.254Z,9.77
2017-03-19T17:38:58.875Z,9.74
2017-03-19T17:39:58.912Z,9.74
2017-03-19T17:40:58.475Z,9.75
2017-03-19T17:41:59.003Z,9.74
2017-03-19T17:42:59.310Z,9.72
2017-03-19T17:43:59.318Z,9.66
2017-03-19T17:44:58.272Z,9.63
2017-03-19T17:45:58.242Z,9.66
2017-03-19T17:46:59.335Z,9.72
2017-03-19T17:47:59.620Z,9.75
2017-03-19T17:48:58.290Z,9.56
2017-03-19T17:49:59.486Z,9.71
2017-03-19T17:50:58.745Z,9.67
2017-03-19T17:51:58.856Z,9.72
2017-03-19T17:52:58.328Z,9.67
2017-03-19T17:53:58.880Z,9.67
2017-03-19T17:54:59.165Z,9.66
2017-03-19T17:55:58.781Z,9.59
2017-03-19T17:56:58.710Z,9.56
2017-03-19T17:57:58.818Z,9.67
2017-03-19T17:58:58.215Z,9.57
2017-03-19T17:59:58.363Z,9.53
2017-03-19T18:00:58.499Z,9.59
2017-03-19T18:01:58.782Z,9.57
2017-03-19T18:02:58.963Z,9.56
2017-03-19T18:03:58.355Z,9.48
2017-03-19T18:04:58.615Z,9.52
2017-03-19T18:05:58.536Z,9.6
2017-03-19T18:06:58.457Z,9.44
2017-03-19T18:07:59.120Z,9.63
2017-03-19T18:08:58.045Z,9.55
2017-03-19T18:09:58.350Z,9.53
2017-03-19T18:10:58.337Z,9.44
2017-03-19T18:11:58.327Z,9.47
2017-03-19T18:12:58.321Z,9.52
2017-03-19T18:13:58.313Z,9.55
2017-03-19T18:14:58.308Z,9.52
2017-03-19T18:15:58.293Z,9.48
2017-03-19T18:16:58.284Z,9.47
2017-03-19T18:17:57.995Z,9.47
2017-03-19T18:18:58.269Z,9.47
2017-03-19T18:19:58.258Z,9.42
2017-03-19T18:20:57.617Z,9.39
2017-03-19T18:21:57.923Z,9.41
2017-03-19T18:22:58.233Z,9.39
2017-03-19T18:23:57.907Z,9.39
2017-03-19T18:24:57.903Z,9.39
2017-03-19T18:25:57.884Z,9.3
2017-03-19T18:26:58.198Z,9.32
2017-03-19T18:27:58.189Z,9.42
2017-03-19T18:28:58.181Z,9.29
2017-03-19T18:29:58.170Z,9.34
2017-03-19T18:30:58.159Z,9.42
2017-03-19T18:31:57.832Z,9.39
2017-03-19T18:32:58.145Z,9.38
2017-03-19T18:33:58.137Z,9.29
2017-03-19T18:34:58.130Z,9.29
2017-03-19T18:35:58.108Z,9.29
2017-03-19T18:36:57.791Z,9.29
2017-03-19T18:37:57.781Z,9.32
2017-03-19T18:38:58.091Z,9.38
2017-03-19T18:39:57.907Z,9.3
2017-03-19T18:40:57.750Z,9.35
2017-03-19T18:41:57.750Z,9.3
2017-03-19T18:42:58.016Z,9.37
2017-03-19T18:43:57.733Z,9.26
2017-03-19T18:44:57.717Z,9.35
2017-03-19T18:45:58.678Z,9.34
2017-03-19T18:46:57.708Z,9.3
2017-03-19T18:47:57.810Z,9.39
2017-03-19T18:48:58.006Z,9.47
2017-03-19T18:49:57.993Z,9.42
2017-03-19T18:50:58.021Z,9.52
2017-03-19T18:51:57.661Z,9.48
2017-03-19T18:52:57.969Z,9.55
2017-03-19T18:53:58.214Z,9.38
2017-03-19T18:54:57.944Z,9.47
2017-03-19T18:55:57.972Z,9.44
2017-03-19T18:56:58.018Z,9.48
2017-03-19T18:57:57.604Z,9.37
2017-03-19T18:58:58.012Z,9.47
2017-03-19T18:59:57.903Z,9.45
2017-03-19T19:00:57.891Z,9.42
2017-03-19T19:01:58.024Z,9.48
2017-03-19T19:02:57.879Z,9.38
2017-03-19T19:03:57.869Z,9.41
2017-03-19T19:04:57.628Z,9.45
2017-03-19T19:05:57.846Z,9.42
2017-03-19T19:06:57.994Z,9.32
2017-03-19T19:07:57.832Z,9.29
2017-03-19T19:08:57.826Z,9.35
2017-03-19T19:09:58.147Z,9.37
2017-03-19T19:10:57.800Z,9.29
2017-03-19T19:11:58.350Z,9.34
2017-03-19T19:12:57.785Z,9.34
2017-03-19T19:13:58.116Z,9.37
2017-03-19T19:14:57.778Z,9.39
2017-03-19T19:15:57.444Z,9.34
2017-03-19T19:16:58.162Z,9.35
2017-03-19T19:17:57.790Z,9.2
2017-03-19T19:18:57.729Z,9.29
2017-03-19T19:19:57.717Z,9.3
2017-03-19T19:20:57.745Z,9.21
2017-03-19T19:21:57.703Z,9.29
2017-03-19T19:22:57.885Z,9.17
2017-03-19T19:23:57.687Z,9.17
2017-03-19T19:24:57.672Z,9.2
2017-03-19T19:25:57.455Z,9.2
2017-03-19T19:26:57.654Z,9.2
2017-03-19T19:27:57.790Z,9.27
2017-03-19T19:28:57.322Z,9.26
2017-03-19T19:29:57.632Z,9.32
2017-03-19T19:30:57.119Z,9.3
2017-03-19T19:31:57.320Z,9.34
2017-03-19T19:32:57.643Z,9.3
2017-03-19T19:33:57.630Z,9.29
2017-03-19T19:34:57.652Z,9.34
2017-03-19T19:35:57.578Z,9.34
2017-03-19T19:36:57.562Z,9.34
2017-03-19T19:37:57.781Z,9.32
2017-03-19T19:38:57.235Z,9.34
2017-03-19T19:39:57.548Z,9.35
2017-03-19T19:40:57.311Z,9.29
2017-03-19T19:41:57.521Z,9.35
2017-03-19T19:42:57.690Z,9.27
2017-03-19T19:43:57.516Z,9.27
2017-03-19T19:44:57.178Z,9.34
2017-03-19T19:45:57.459Z,9.27
2017-03-19T19:46:57.517Z,9.32
2017-03-19T19:47:57.265Z,9.19
2017-03-19T19:48:57.457Z,9.2
2017-03-19T19:49:57.236Z,9.24
2017-03-19T19:50:57.125Z,9.21
2017-03-19T19:51:57.082Z,9.23
2017-03-19T19:52:57.543Z,9.19
2017-03-19T19:53:57.411Z,9.17
2017-03-19T19:54:57.584Z,9.11
2017-03-19T19:55:57.074Z,9.11
2017-03-19T19:56:57.904Z,9.17
2017-03-19T19:57:57.380Z,9.11
2017-03-19T19:58:57.149Z,9.04
2017-03-19T19:59:57.360Z,9.05
2017-03-19T20:00:56.717Z,8.98
2017-03-19T20:01:56.772Z,9.01
2017-03-19T20:02:57.015Z,8.98
2017-03-19T20:03:57.831Z,9.05
2017-03-19T20:04:57.316Z,9.01
2017-03-19T20:05:57.315Z,9.05
2017-03-19T20:06:57.431Z,8.97
2017-03-19T20:07:57.290Z,9.01
2017-03-19T20:08:57.109Z,9
2017-03-19T20:09:57.265Z,8.95
2017-03-19T20:10:57.253Z,9.03
2017-03-19T20:11:56.986Z,8.89
2017-03-19T20:12:57.294Z,8.95
2017-03-19T20:13:56.916Z,9
2017-03-19T20:14:57.223Z,8.97
2017-03-19T20:15:56.892Z,9.01
2017-03-19T20:16:57.260Z,9.01
2017-03-19T20:17:57.294Z,8.94
2017-03-19T20:18:57.183Z,8.95
2017-03-19T20:19:57.364Z,9.16
2017-03-19T20:20:56.845Z,8.97
2017-03-19T20:21:56.840Z,9.04
2017-03-19T20:22:56.837Z,9.03
2017-03-19T20:23:56.863Z,9.04
2017-03-19T20:24:56.819Z,9.04
2017-03-19T20:25:57.114Z,9.09
2017-03-19T20:26:56.792Z,9.12
2017-03-19T20:27:56.785Z,9.04
2017-03-19T20:28:56.774Z,8.98
2017-03-19T20:29:56.766Z,9.09
2017-03-19T20:30:57.066Z,9.04
2017-03-19T20:31:57.098Z,9.04
2017-03-19T20:32:56.741Z,9.08
2017-03-19T20:33:56.739Z,9.03
2017-03-19T20:34:57.045Z,8.98
2017-03-19T20:35:57.024Z,8.98
2017-03-19T20:36:56.702Z,8.92
2017-03-19T20:37:57.004Z,8.95
2017-03-19T20:38:56.683Z,8.98
2017-03-19T20:39:56.994Z,9
2017-03-19T20:40:56.981Z,9.01
2017-03-19T20:41:56.967Z,8.95
2017-03-19T20:42:56.961Z,9.04
2017-03-19T20:43:56.954Z,8.9
2017-03-19T20:44:56.942Z,9.11
2017-03-19T20:45:56.619Z,9.04
2017-03-19T20:46:56.609Z,9.08
2017-03-19T20:47:56.913Z,8.98
2017-03-19T20:48:56.904Z,9
2017-03-19T20:49:56.583Z,9
2017-03-19T20:50:56.568Z,8.95
2017-03-19T20:51:56.875Z,9.04
2017-03-19T20:52:56.557Z,9
2017-03-19T20:53:56.543Z,9.03
2017-03-19T20:54:56.532Z,9
2017-03-19T20:55:56.525Z,9.03
2017-03-19T20:56:56.825Z,9.05
2017-03-19T20:57:56.823Z,9.01
2017-03-19T20:58:56.817Z,9.08
2017-03-19T20:59:56.801Z,9.14
2017-03-19T21:00:56.790Z,9.2
2017-03-19T21:01:56.466Z,9.16
2017-03-19T21:02:56.775Z,9.17
2017-03-19T21:03:56.768Z,9.16
2017-03-19T21:04:56.759Z,9.19
2017-03-19T21:05:56.747Z,9.23
2017-03-19T21:06:56.419Z,9.21
2017-03-19T21:07:56.726Z,9.19
2017-03-19T21:08:56.718Z,9.21
2017-03-19T21:09:56.715Z,9.2
2017-03-19T21:10:56.693Z,9.21
2017-03-19T21:11:56.695Z,9.16
2017-03-19T21:12:56.683Z,9.21
2017-03-19T21:13:56.681Z,9.17
2017-03-19T21:14:56.661Z,9.14
2017-03-19T21:15:56.650Z,9.04
2017-03-19T21:16:56.636Z,9.08
2017-03-19T21:17:56.322Z,9.04
2017-03-19T21:18:56.629Z,9.01
2017-03-19T21:19:56.619Z,9.16
2017-03-19T21:20:56.603Z,9.09
2017-03-19T21:21:56.597Z,9.08
2017-03-19T21:22:56.593Z,9
2017-03-19T21:23:56.262Z,9.14
2017-03-19T21:24:56.569Z,9.2
2017-03-19T21:25:56.242Z,9.17
2017-03-19T21:26:56.242Z,9.2
2017-03-19T21:27:56.545Z,9.21
2017-03-19T21:28:56.535Z,9.2
2017-03-19T21:29:56.526Z,9.2
2017-03-19T21:30:56.545Z,9.2
2017-03-19T21:31:56.192Z,9.2
2017-03-19T21:32:56.496Z,9.23
2017-03-19T21:33:56.490Z,9.2
2017-03-19T21:34:56.485Z,9.21
2017-03-19T21:35:56.462Z,9.17